Pilot Rock, Oregon
Current Conditions -  °F | °C
As of 11:53 PM on Sunday 23 Nov 2014 (Local Time) from KPDT Reporting Station
Clear Clear  
Wind Chill: 36°   Ceiling: Unl
Heat Index: 43°   Visibility: 10mi
Dew Point: 35°   Wind: 13mph
Humidity: 74%   Direction: 240°WSW
Pressure: 30.28"   Gusts: NA
Location:  45.48°N, 118.83°W
Report Text: KPDT 240753Z AUTO 24011KT 10SM CLR 06/02 A3028 RMK AO2 SLP253 T00610017 401110033
Loading
Personal Weather Stations






























Interactive Weather Map New forecast layout! Learn more

10-Day Weather Forecast

Advertisements
Track Severe Weather on mobile